createdAt,value
2023-05-06T00:00:14.024Z,86.56
2023-05-06T00:04:17.549Z,85.99
2023-05-06T00:08:21.359Z,84.35
2023-05-06T00:12:27.855Z,84.08
2023-05-06T00:16:31.450Z,84.29
2023-05-06T00:20:37.026Z,84.01
2023-05-06T00:24:42.276Z,83.14
2023-05-06T00:28:47.875Z,82.79
2023-05-06T00:32:48.995Z,81.93
2023-05-06T00:36:49.114Z,81.41
2023-05-06T00:40:50.370Z,83.71
2023-05-06T00:45:17.821Z,84.38
2023-05-06T00:49:35.361Z,84.15
2023-05-06T00:53:39.785Z,86.52
2023-05-06T00:57:42.807Z,88.36
2023-05-06T01:01:47.548Z,88.66
2023-05-06T01:06:02.025Z,87.99
2023-05-06T01:10:07.541Z,86.68
2023-05-06T01:14:25.393Z,86.19
2023-05-06T01:18:28.626Z,86.82
2023-05-06T01:22:34.191Z,89.02
2023-05-06T01:26:44.549Z,90.39
2023-05-06T01:30:57.379Z,90.77
2023-05-06T01:35:11.933Z,90.18
2023-05-06T01:39:18.726Z,89.32
2023-05-06T01:43:28.028Z,89.99
2023-05-06T01:47:33.055Z,91.09
2023-05-06T01:51:42.677Z,91.75
2023-05-06T01:55:45.566Z,90.73
2023-05-06T01:59:50.693Z,89.06
2023-05-06T02:04:01.380Z,88.88
2023-05-06T02:08:10.635Z,89.64
2023-05-06T02:12:16.243Z,91.67
2023-05-06T02:16:26.385Z,92.69
2023-05-06T02:20:26.793Z,92.08
2023-05-06T02:24:30.197Z,91.60
2023-05-06T02:28:32.226Z,93.08
2023-05-06T02:32:40.868Z,94.56
2023-05-06T02:36:58.260Z,96.10
2023-05-06T02:41:03.992Z,98.08
2023-05-06T02:45:14.214Z,98.53
2023-05-06T02:58:51.347Z,99.80
2023-05-06T03:03:21.706Z,100.00
2023-05-06T03:07:42.980Z,100.00
2023-05-06T03:11:54.583Z,100.00
2023-05-06T03:15:55.531Z,99.79
2023-05-06T03:25:41.873Z,98.30
2023-05-06T03:29:43.312Z,97.25
2023-05-06T03:33:46.643Z,95.91
2023-05-06T03:37:54.205Z,96.39
2023-05-06T03:41:57.561Z,97.57
2023-05-06T03:45:58.380Z,98.58
2023-05-06T03:49:59.972Z,99.00
2023-05-06T03:53:59.986Z,94.93
2023-05-06T03:58:17.824Z,93.89
2023-05-06T04:02:22.104Z,89.20
2023-05-06T04:06:23.987Z,83.40
2023-05-06T04:10:33.495Z,79.81
2023-05-06T04:14:52.046Z,79.24
2023-05-06T04:18:55.649Z,79.25
2023-05-06T04:22:59.789Z,76.50
2023-05-06T04:27:06.864Z,74.31
2023-05-06T04:31:18.395Z,73.04
2023-05-06T04:35:29.757Z,69.64
2023-05-06T04:39:39.820Z,67.04
2023-05-06T04:44:10.471Z,66.10
2023-05-06T04:48:24.936Z,68.59
2023-05-06T04:52:57.775Z,69.40
2023-05-06T04:57:09.228Z,68.51
2023-05-06T05:01:14.635Z,63.75
2023-05-06T05:05:49.529Z,62.10
2023-05-06T05:10:06.137Z,61.65
2023-05-06T05:14:16.072Z,59.77
2023-05-06T05:18:18.900Z,58.52
2023-05-06T05:22:28.548Z,55.87
2023-05-06T05:26:29.829Z,59.00
2023-05-06T05:30:34.752Z,60.37
2023-05-06T05:34:44.704Z,61.85
2023-05-06T05:38:59.788Z,62.93
2023-05-06T05:43:15.273Z,65.20
2023-05-06T05:47:46.042Z,66.72
2023-05-06T05:52:15.233Z,64.94
2023-05-06T05:56:41.366Z,67.65
2023-05-06T06:00:48.776Z,69.37
2023-05-06T06:05:08.337Z,68.61
2023-05-06T06:09:15.141Z,68.77
2023-05-06T06:13:24.817Z,67.78
2023-05-06T06:17:42.575Z,68.64
2023-05-06T06:22:23.948Z,68.00
2023-05-06T06:26:31.250Z,70.25
2023-05-06T06:31:03.520Z,70.33
2023-05-06T06:35:30.883Z,71.43
2023-05-06T06:39:40.542Z,71.43
2023-05-06T06:44:00.672Z,69.84
2023-05-06T06:48:04.549Z,70.25
2023-05-06T06:52:24.808Z,69.61
2023-05-06T06:56:24.580Z,69.19
2023-05-06T07:00:28.399Z,69.30
2023-05-06T07:04:35.738Z,67.80
2023-05-06T07:08:45.173Z,66.91
2023-05-06T07:12:47.531Z,66.42
2023-05-06T07:16:57.855Z,65.84
2023-05-06T07:21:10.419Z,65.66
2023-05-06T07:25:16.817Z,65.36
2023-05-06T07:29:52.255Z,64.42
2023-05-06T07:34:00.769Z,62.65
2023-05-06T07:38:12.179Z,63.81
2023-05-06T07:42:24.879Z,64.41
2023-05-06T07:46:36.687Z,61.42
2023-05-06T07:51:03.247Z,63.82
2023-05-06T07:55:13.980Z,63.72
2023-05-06T08:04:18.303Z,60.96
2023-05-06T08:08:41.993Z,60.10
2023-05-06T08:13:11.287Z,60.57
2023-05-06T08:26:45.370Z,57.07
2023-05-06T08:30:48.616Z,58.09
2023-05-06T08:35:14.102Z,56.52
2023-05-06T08:44:52.481Z,53.81
2023-05-06T08:49:27.122Z,54.68
2023-05-06T08:54:25.476Z,54.53
2023-05-06T09:47:53.836Z,49.48
2023-05-06T09:51:58.613Z,51.16
2023-05-06T09:56:05.951Z,50.11
2023-05-06T10:00:08.334Z,49.23
2023-05-06T10:04:16.937Z,49.61
2023-05-06T10:08:18.388Z,49.71
2023-05-06T10:12:23.504Z,48.33
2023-05-06T10:16:24.634Z,48.07
2023-05-06T10:20:34.061Z,46.41
2023-05-06T10:24:39.323Z,46.89
2023-05-06T10:28:43.035Z,46.42
2023-05-06T10:32:47.703Z,44.86
2023-05-06T10:36:57.149Z,44.81
2023-05-06T10:41:07.077Z,44.45
2023-05-06T10:45:09.644Z,46.20
2023-05-06T10:49:21.688Z,44.72
2023-05-06T10:53:43.685Z,42.48
2023-05-06T10:57:52.340Z,44.63
2023-05-06T11:02:02.279Z,44.59
2023-05-06T11:06:06.015Z,46.48
2023-05-06T11:10:08.172Z,46.26
2023-05-06T11:14:17.079Z,42.41
2023-05-06T11:18:33.742Z,42.46
2023-05-06T11:22:42.449Z,43.74
2023-05-06T11:26:45.902Z,43.49
2023-05-06T11:31:06.117Z,43.86
2023-05-06T11:35:13.994Z,43.50
2023-05-06T11:39:15.405Z,41.69
2023-05-06T11:43:29.698Z,42.59
2023-05-06T11:47:35.001Z,43.03
2023-05-06T11:51:35.327Z,43.03
2023-05-06T11:55:37.078Z,43.29
2023-05-06T11:59:38.293Z,42.87
2023-05-06T12:03:42.536Z,42.56
2023-05-06T12:07:49.234Z,42.92
2023-05-06T12:11:53.358Z,43.02
2023-05-06T12:16:01.384Z,43.05
2023-05-06T12:20:04.532Z,43.53
2023-05-06T12:24:13.139Z,42.04
2023-05-06T12:28:16.658Z,42.22
2023-05-06T12:32:18.369Z,41.86
2023-05-06T12:36:25.365Z,42.46
2023-05-06T12:40:25.404Z,42.49
2023-05-06T12:44:38.964Z,40.76
2023-05-06T12:48:44.692Z,41.31
2023-05-06T12:52:49.212Z,41.14
2023-05-06T12:56:51.410Z,40.76
2023-05-06T13:00:52.976Z,41.89
2023-05-06T13:04:56.677Z,40.69
2023-05-06T13:08:59.173Z,41.10
2023-05-06T13:12:59.679Z,41.79
2023-05-06T13:17:01.160Z,41.00
2023-05-06T13:21:02.081Z,40.51
2023-05-06T13:25:47.973Z,39.48
2023-05-06T13:29:56.950Z,38.75
2023-05-06T13:33:58.111Z,38.50
2023-05-06T13:38:01.211Z,39.55
2023-05-06T13:42:06.726Z,39.17
2023-05-06T13:46:10.844Z,39.24
2023-05-06T13:50:21.187Z,38.55
2023-05-06T13:54:27.737Z,37.99
2023-05-06T13:58:32.561Z,37.60
2023-05-06T14:02:43.707Z,37.36
2023-05-06T14:06:54.763Z,36.62
2023-05-06T14:11:25.569Z,37.15
2023-05-06T14:15:33.091Z,37.70
2023-05-06T14:19:36.016Z,37.66
2023-05-06T14:23:42.527Z,38.47
2023-05-06T14:28:02.448Z,37.74
2023-05-06T14:36:33.267Z,38.12
2023-05-06T14:40:41.842Z,38.20
2023-05-06T14:44:59.964Z,37.48
2023-05-06T14:49:07.847Z,38.29
2023-05-06T14:53:08.902Z,38.52
2023-05-06T14:57:13.435Z,39.25
2023-05-06T15:01:21.586Z,36.91
2023-05-06T15:05:26.043Z,36.51
2023-05-06T15:09:40.349Z,35.74
2023-05-06T15:13:47.045Z,36.54
2023-05-06T15:17:46.465Z,35.72
2023-05-06T15:21:50.622Z,35.72
2023-05-06T15:25:54.693Z,36.90
2023-05-06T15:30:07.211Z,35.10
2023-05-06T15:34:11.641Z,35.09
2023-05-06T15:38:30.797Z,35.35
2023-05-06T15:42:44.570Z,35.21
2023-05-06T15:47:01.810Z,35.63
2023-05-06T15:51:25.914Z,35.06
2023-05-06T15:55:41.453Z,35.11
2023-05-06T16:00:16.234Z,35.29
2023-05-06T16:04:50.417Z,34.38
2023-05-06T16:13:35.374Z,34.54
2023-05-06T16:17:54.047Z,34.20
2023-05-06T16:22:00.500Z,35.03
2023-05-06T16:26:17.424Z,35.50
2023-05-06T16:30:23.903Z,35.30
2023-05-06T16:34:24.437Z,35.00
2023-05-06T16:38:30.714Z,35.94
2023-05-06T16:42:33.815Z,34.87
2023-05-06T16:46:41.353Z,35.70
2023-05-06T16:50:45.136Z,35.69
2023-05-06T16:54:46.185Z,36.02
2023-05-06T16:58:50.389Z,36.18
2023-05-06T17:02:54.175Z,35.94
2023-05-06T17:07:02.329Z,36.32
2023-05-06T17:11:14.149Z,36.44
2023-05-06T17:15:21.581Z,36.56
2023-05-06T17:19:39.204Z,37.17
2023-05-06T17:23:43.347Z,37.91
2023-05-06T17:27:45.080Z,38.16
2023-05-06T17:31:48.241Z,38.64
2023-05-06T17:35:56.811Z,39.03
2023-05-06T17:39:59.301Z,39.30
2023-05-06T17:44:04.353Z,39.31
2023-05-06T17:48:08.737Z,39.29
2023-05-06T17:52:11.135Z,39.57
2023-05-06T17:56:17.018Z,39.95
2023-05-06T18:00:21.839Z,39.86
2023-05-06T18:04:26.692Z,40.39
2023-05-06T18:08:31.033Z,40.76
2023-05-06T18:12:34.150Z,41.39
2023-05-06T18:16:33.767Z,42.01
2023-05-06T18:20:34.020Z,41.99
2023-05-06T18:24:38.402Z,42.14
2023-05-06T18:28:42.768Z,43.18
2023-05-06T18:32:43.649Z,43.52
2023-05-06T18:36:43.207Z,44.73
2023-05-06T18:40:49.162Z,44.97
2023-05-06T18:44:50.325Z,45.86
2023-05-06T18:48:50.864Z,46.71
2023-05-06T18:53:00.017Z,48.24
2023-05-06T18:57:02.996Z,48.90
2023-05-06T19:01:02.950Z,48.63
2023-05-06T19:05:07.964Z,47.87
2023-05-06T19:09:08.304Z,47.57
2023-05-06T19:13:10.219Z,48.78
2023-05-06T19:17:10.983Z,49.66
2023-05-06T19:21:11.366Z,50.26
2023-05-06T19:25:14.559Z,51.23
2023-05-06T19:29:18.362Z,52.33
2023-05-06T19:33:21.633Z,52.96
2023-05-06T19:37:22.498Z,53.29
2023-05-06T19:41:24.909Z,53.88
2023-05-06T19:45:27.504Z,54.36
2023-05-06T19:49:31.102Z,54.58
2023-05-06T19:53:34.654Z,55.57
2023-05-06T19:57:37.505Z,56.64
2023-05-06T20:01:39.606Z,57.22
2023-05-06T20:05:40.789Z,57.81
2023-05-06T20:09:42.152Z,58.94
2023-05-06T20:13:43.201Z,59.61
2023-05-06T20:17:47.210Z,61.27
2023-05-06T20:21:49.555Z,62.89
2023-05-06T20:25:50.553Z,64.30
2023-05-06T20:29:51.990Z,64.97
2023-05-06T20:33:54.911Z,65.82
2023-05-06T20:37:59.075Z,66.34
2023-05-06T20:42:06.138Z,66.02
2023-05-06T20:46:06.965Z,66.35
2023-05-06T20:50:17.413Z,66.85
2023-05-06T20:54:17.946Z,68.25
2023-05-06T20:58:20.934Z,69.23
2023-05-06T21:02:22.142Z,69.19
2023-05-06T21:06:23.585Z,69.55
2023-05-06T21:10:23.776Z,69.68
2023-05-06T21:14:24.530Z,70.66
2023-05-06T21:18:29.345Z,70.98
2023-05-06T21:22:45.651Z,71.21
2023-05-06T21:26:53.057Z,71.33
2023-05-06T21:30:54.234Z,71.12
2023-05-06T21:34:54.975Z,71.66
2023-05-06T21:39:09.177Z,71.02
2023-05-06T21:43:09.416Z,70.85
2023-05-06T21:47:09.695Z,71.34
2023-05-06T21:51:10.137Z,71.69
2023-05-06T21:55:18.862Z,72.70
2023-05-06T21:59:19.496Z,75.12
2023-05-06T22:03:19.948Z,75.59
2023-05-06T22:07:20.233Z,75.76
2023-05-06T22:11:23.593Z,76.19
2023-05-06T22:15:26.456Z,76.36
2023-05-06T22:19:26.340Z,76.00
2023-05-06T22:23:27.863Z,75.09
2023-05-06T22:27:30.141Z,74.88
2023-05-06T22:31:30.285Z,74.76
2023-05-06T22:35:30.286Z,74.50
2023-05-06T22:39:30.601Z,73.97
2023-05-06T22:43:32.989Z,73.23
2023-05-06T22:47:33.298Z,73.13
2023-05-06T22:51:33.208Z,72.85
2023-05-06T22:55:43.651Z,71.70
2023-05-06T22:59:49.784Z,71.13
2023-05-06T23:03:51.955Z,71.77
2023-05-06T23:07:52.713Z,71.74
2023-05-06T23:11:53.248Z,71.02
2023-05-06T23:15:55.839Z,71.83
2023-05-06T23:19:56.297Z,72.41
2023-05-06T23:23:59.519Z,71.93
2023-05-06T23:27:59.725Z,72.53
2023-05-06T23:32:03.624Z,73.45
2023-05-06T23:36:05.525Z,73.50
2023-05-06T23:40:06.141Z,72.73
2023-05-06T23:44:08.033Z,72.62
2023-05-06T23:48:11.713Z,73.50
2023-05-06T23:52:15.869Z,74.04
2023-05-06T23:56:16.395Z,74.10
